createdAt,value
2018-11-20T00:00:56.131Z,47.70
2018-11-20T00:03:42.154Z,47.70
2018-11-20T00:06:35.130Z,47.70
2018-11-20T00:09:31.414Z,47.60
2018-11-20T00:12:24.241Z,47.50
2018-11-20T00:14:59.538Z,47.70
2018-11-20T00:17:49.339Z,47.60
2018-11-20T00:20:35.101Z,47.30
2018-11-20T00:23:19.434Z,47.40
2018-11-20T00:26:08.094Z,47.40
2018-11-20T00:28:45.723Z,47.50
2018-11-20T00:31:31.766Z,47.40
2018-11-20T00:34:21.813Z,47.20
2018-11-20T00:37:08.914Z,47.20
2018-11-20T00:40:01.728Z,47.10
2018-11-20T00:42:57.578Z,47.10
2018-11-20T00:45:47.396Z,47.00
2018-11-20T00:48:33.078Z,47.00
2018-11-20T00:51:20.190Z,46.90
2018-11-20T00:54:14.533Z,47.20
2018-11-20T00:57:00.370Z,47.40
2018-11-20T00:59:41.089Z,47.30
2018-11-20T01:02:30.869Z,47.30
2018-11-20T01:05:23.981Z,47.30
2018-11-20T01:08:09.842Z,47.50
2018-11-20T01:11:05.940Z,47.40
2018-11-20T01:13:46.290Z,47.30
2018-11-20T01:16:52.389Z,47.30
2018-11-20T01:19:58.469Z,47.30
2018-11-20T01:26:16.574Z,47.70
2018-11-20T01:29:22.725Z,47.00
2018-11-20T01:32:28.892Z,47.10
2018-11-20T01:35:34.973Z,47.00
2018-11-20T01:38:40.421Z,46.90
2018-11-20T01:41:46.480Z,47.30
2018-11-20T01:44:52.572Z,47.10
2018-11-20T01:47:58.670Z,47.20
2018-11-20T01:51:04.752Z,47.10
2018-11-20T01:54:10.848Z,47.10
2018-11-20T01:57:16.937Z,47.10
2018-11-20T02:00:23.023Z,47.10
2018-11-20T02:03:29.116Z,47.10
2018-11-20T02:06:35.192Z,47.00
2018-11-20T02:09:41.285Z,46.90
2018-11-20T02:12:47.383Z,46.80
2018-11-20T02:15:53.501Z,46.60
2018-11-20T02:18:59.602Z,46.60
2018-11-20T02:22:05.689Z,46.50
2018-11-20T02:25:11.785Z,46.90
2018-11-20T02:28:17.874Z,47.10
2018-11-20T02:31:23.972Z,46.90
2018-11-20T02:34:30.071Z,46.60
2018-11-20T02:37:36.159Z,46.60
2018-11-20T02:40:42.252Z,46.60
2018-11-20T02:43:35.490Z,46.60
2018-11-20T02:46:41.586Z,46.60
2018-11-20T02:49:47.687Z,46.60
2018-11-20T02:52:53.788Z,46.50
2018-11-20T02:55:59.882Z,46.30
2018-11-20T02:59:05.970Z,46.70
2018-11-20T03:02:12.063Z,46.80
2018-11-20T03:05:18.180Z,46.90
2018-11-20T03:08:24.261Z,46.80
2018-11-20T03:11:30.355Z,46.60
2018-11-20T03:14:24.650Z,46.80
2018-11-20T03:17:30.742Z,46.90
2018-11-20T03:20:36.849Z,46.70
2018-11-20T03:23:42.943Z,46.70
2018-11-20T03:26:49.092Z,46.80
2018-11-20T03:29:55.120Z,46.70
2018-11-20T03:33:01.216Z,46.50
2018-11-20T03:36:07.384Z,46.70
2018-11-20T03:39:13.446Z,46.30
2018-11-20T03:42:19.537Z,46.50
2018-11-20T03:45:25.623Z,46.80
2018-11-20T03:48:31.708Z,46.70
2018-11-20T03:51:37.805Z,46.60
2018-11-20T03:54:43.987Z,46.70
2018-11-20T03:57:50.072Z,46.90
2018-11-20T04:00:47.412Z,47.40
2018-11-20T04:03:53.505Z,46.60
2018-11-20T04:06:59.594Z,46.80
2018-11-20T04:10:05.681Z,46.80
2018-11-20T04:13:11.768Z,47.10
2018-11-20T04:16:17.852Z,47.00
2018-11-20T04:19:23.953Z,47.20
2018-11-20T04:22:30.048Z,47.10
2018-11-20T04:25:36.135Z,47.10
2018-11-20T04:28:42.236Z,47.20
2018-11-20T04:31:48.312Z,46.90
2018-11-20T04:34:41.099Z,46.60
2018-11-20T04:37:47.199Z,46.70
2018-11-20T04:40:53.353Z,46.90
2018-11-20T04:43:59.467Z,46.90
2018-11-20T04:47:05.544Z,46.90
2018-11-20T04:50:11.642Z,46.90
2018-11-20T04:53:17.745Z,46.80
2018-11-20T04:56:23.832Z,46.60
2018-11-20T04:59:29.931Z,46.60
2018-11-20T05:02:36.108Z,46.50
2018-11-20T05:05:42.255Z,46.40
2018-11-20T05:08:48.336Z,46.40
2018-11-20T05:11:42.381Z,46.70
2018-11-20T05:14:48.482Z,47.00
2018-11-20T05:17:54.566Z,46.50
2018-11-20T05:21:00.663Z,46.50
2018-11-20T05:24:06.741Z,46.80
2018-11-20T05:27:12.832Z,46.50
2018-11-20T05:30:18.937Z,46.50
2018-11-20T05:33:25.021Z,46.40
2018-11-20T05:36:31.118Z,46.50
2018-11-20T05:39:37.216Z,46.50
2018-11-20T05:42:43.301Z,46.40
2018-11-20T05:45:49.410Z,46.50
2018-11-20T05:48:55.490Z,46.90
2018-11-20T05:52:01.582Z,47.20
2018-11-20T05:55:07.664Z,47.20
2018-11-20T05:58:13.847Z,47.20
2018-11-20T06:01:18.883Z,47.20
2018-11-20T06:04:24.998Z,47.30
2018-11-20T06:07:31.094Z,47.30
2018-11-20T06:10:37.183Z,46.40
2018-11-20T06:13:43.264Z,46.30
2018-11-20T06:16:49.389Z,45.90
2018-11-20T06:19:55.479Z,45.30
2018-11-20T06:23:01.595Z,45.30
2018-11-20T06:26:07.699Z,45.10
2018-11-20T06:29:13.947Z,45.40
2018-11-20T06:32:19.938Z,45.40
2018-11-20T06:35:26.042Z,45.40
2018-11-20T06:38:32.133Z,45.40
2018-11-20T06:41:38.229Z,45.70
2018-11-20T06:47:39.348Z,45.70
2018-11-20T06:50:45.432Z,45.70
2018-11-20T06:53:51.526Z,45.90
2018-11-20T06:56:57.614Z,45.80
2018-11-20T06:59:54.944Z,45.70
2018-11-20T07:03:01.020Z,45.70
2018-11-20T07:06:07.110Z,45.70
2018-11-20T07:09:13.223Z,45.70
2018-11-20T07:12:19.311Z,45.70
2018-11-20T07:15:25.532Z,45.90
2018-11-20T07:18:31.500Z,45.90
2018-11-20T07:21:37.590Z,45.80
2018-11-20T07:24:43.700Z,45.80
2018-11-20T07:27:49.781Z,45.80
2018-11-20T07:30:56.054Z,45.90
2018-11-20T07:34:01.985Z,45.90
2018-11-20T07:37:08.198Z,45.80
2018-11-20T07:40:14.176Z,45.80
2018-11-20T07:46:06.634Z,45.70
2018-11-20T07:49:21.141Z,45.90
2018-11-20T07:52:01.195Z,45.90
2018-11-20T07:54:40.519Z,46.20
2018-11-20T07:57:20.444Z,46.10
2018-11-20T08:00:00.660Z,46.00
2018-11-20T08:02:40.606Z,46.00
2018-11-20T08:05:20.617Z,45.90
2018-11-20T08:08:00.498Z,46.10
2018-11-20T08:10:39.730Z,46.20
2018-11-20T08:13:18.948Z,46.00
2018-11-20T08:15:59.099Z,46.20
2018-11-20T08:18:38.867Z,46.10
2018-11-20T08:21:19.138Z,46.00
2018-11-20T08:23:58.971Z,46.00
2018-11-20T08:26:39.021Z,46.00
2018-11-20T08:29:18.643Z,46.00
2018-11-20T08:31:58.528Z,46.00
2018-11-20T08:34:38.359Z,46.00
2018-11-20T08:37:18.065Z,45.80
2018-11-20T08:39:58.106Z,45.80
2018-11-20T08:42:37.349Z,45.80
2018-11-20T08:45:16.894Z,45.80
2018-11-20T08:47:57.076Z,45.70
2018-11-20T08:50:36.909Z,45.80
2018-11-20T08:53:16.210Z,45.80
2018-11-20T08:55:55.726Z,45.70
2018-11-20T08:58:35.026Z,45.70
2018-11-20T09:01:15.052Z,45.70
2018-11-20T09:03:54.900Z,45.80
2018-11-20T09:06:34.447Z,45.80
2018-11-20T09:09:14.276Z,46.00
2018-11-20T09:11:54.319Z,45.80
2018-11-20T09:14:34.398Z,45.80
2018-11-20T09:17:14.088Z,45.80
2018-11-20T09:19:53.594Z,45.90
2018-11-20T09:22:33.147Z,46.00
2018-11-20T09:25:13.323Z,46.10
2018-11-20T09:27:53.038Z,46.20
2018-11-20T09:30:32.397Z,46.00
2018-11-20T09:33:12.258Z,46.20
2018-11-20T09:35:52.153Z,46.20
2018-11-20T09:38:31.578Z,46.30
2018-11-20T09:41:11.328Z,46.30
2018-11-20T09:43:51.239Z,46.20
2018-11-20T09:46:31.283Z,46.10
2018-11-20T09:49:11.248Z,46.00
2018-11-20T09:51:50.421Z,45.80
2018-11-20T09:54:30.321Z,46.10
2018-11-20T09:57:10.005Z,46.30
2018-11-20T09:59:50.026Z,46.10
2018-11-20T10:02:29.832Z,46.10
2018-11-20T10:05:09.071Z,46.00
2018-11-20T10:07:49.066Z,45.90
2018-11-20T10:10:28.411Z,46.10
2018-11-20T10:13:08.118Z,45.80
2018-11-20T10:15:48.219Z,46.10
2018-11-20T10:18:27.477Z,46.10
2018-11-20T10:21:07.482Z,46.20
2018-11-20T10:23:47.321Z,46.30
2018-11-20T10:26:27.307Z,46.30
2018-11-20T10:29:07.304Z,46.30
2018-11-20T10:31:46.689Z,46.10
2018-11-20T10:34:26.800Z,46.00
2018-11-20T10:37:06.561Z,45.80
2018-11-20T10:39:46.764Z,45.80
2018-11-20T10:42:26.656Z,46.00
2018-11-20T10:45:05.945Z,46.10
2018-11-20T10:47:45.891Z,46.10
2018-11-20T10:50:26.083Z,46.10
2018-11-20T10:53:06.289Z,46.10
2018-11-20T10:55:46.446Z,46.00
2018-11-20T10:58:25.863Z,46.00
2018-11-20T11:01:05.778Z,45.90
2018-11-20T11:03:45.414Z,46.00
2018-11-20T11:06:25.387Z,45.90
2018-11-20T11:09:07.489Z,46.00
2018-11-20T11:11:47.420Z,46.00
2018-11-20T11:14:27.457Z,45.90
2018-11-20T11:17:06.702Z,45.80
2018-11-20T11:19:46.176Z,45.80
2018-11-20T11:22:26.218Z,45.70
2018-11-20T11:25:05.771Z,45.70
2018-11-20T11:27:45.387Z,45.80
2018-11-20T11:30:24.875Z,45.90
2018-11-20T11:33:04.290Z,45.80
2018-11-20T11:35:43.912Z,46.00
2018-11-20T11:38:23.448Z,45.90
2018-11-20T11:41:03.096Z,46.00
2018-11-20T11:43:43.107Z,45.90
2018-11-20T11:46:23.167Z,46.00
2018-11-20T11:51:51.526Z,45.80
2018-11-20T11:54:31.672Z,45.80
2018-11-20T11:57:10.961Z,45.90
2018-11-20T11:59:50.604Z,45.90
2018-11-20T12:05:09.201Z,46.20
2018-11-20T12:07:54.865Z,46.20
2018-11-20T12:10:36.310Z,46.30
2018-11-20T12:16:03.945Z,46.10
2018-11-20T12:18:56.597Z,46.10
2018-11-20T12:21:36.836Z,46.20
2018-11-20T12:24:23.554Z,46.20
2018-11-20T12:27:05.023Z,46.20
2018-11-20T12:29:51.715Z,46.20
2018-11-20T12:32:41.218Z,46.30
2018-11-20T12:35:33.355Z,46.30
2018-11-20T12:38:12.548Z,46.20
2018-11-20T12:40:56.829Z,46.30
2018-11-20T12:43:58.673Z,46.40
2018-11-20T12:47:01.715Z,46.30
2018-11-20T12:49:52.866Z,46.30
2018-11-20T12:52:43.587Z,46.20
2018-11-20T12:55:31.837Z,46.30
2018-11-20T12:58:17.329Z,46.20
2018-11-20T13:01:02.515Z,46.10
2018-11-20T13:04:02.482Z,46.10
2018-11-20T13:06:50.409Z,46.20
2018-11-20T13:09:40.764Z,46.30
2018-11-20T13:12:35.442Z,46.10
2018-11-20T13:15:24.302Z,46.00
2018-11-20T13:18:11.030Z,46.20
2018-11-20T13:20:55.255Z,46.20
2018-11-20T13:23:57.141Z,46.00
2018-11-20T13:26:42.385Z,46.00
2018-11-20T13:29:34.877Z,45.80
2018-11-20T13:32:21.582Z,46.00
2018-11-20T13:35:04.997Z,45.70
2018-11-20T13:37:51.895Z,45.80
2018-11-20T13:41:10.652Z,45.70
2018-11-20T13:43:52.276Z,45.80
2018-11-20T13:46:37.577Z,46.10
2018-11-20T13:49:32.428Z,46.20
2018-11-20T13:52:17.796Z,46.00
2018-11-20T13:55:07.122Z,46.00
2018-11-20T13:57:46.646Z,46.10
2018-11-20T14:00:31.890Z,46.20
2018-11-20T14:03:19.213Z,46.30
2018-11-20T14:06:11.967Z,46.20
2018-11-20T14:09:13.837Z,46.30
2018-11-20T14:12:01.779Z,46.10
2018-11-20T14:14:34.659Z,46.10
2018-11-20T14:17:15.051Z,46.00
2018-11-20T14:20:10.652Z,46.00
2018-11-20T14:23:03.323Z,46.00
2018-11-20T14:25:48.937Z,45.90
2018-11-20T14:28:34.401Z,45.90
2018-11-20T14:31:19.698Z,45.90
2018-11-20T14:33:57.012Z,45.90
2018-11-20T14:36:46.885Z,46.20
2018-11-20T14:39:39.391Z,46.20
2018-11-20T14:42:44.279Z,46.30
2018-11-20T14:45:30.991Z,46.20
2018-11-20T14:48:16.558Z,46.00
2018-11-20T14:51:12.363Z,46.10
2018-11-20T14:53:58.019Z,46.10
2018-11-20T14:56:43.527Z,46.20
2018-11-20T14:59:30.252Z,45.90
2018-11-20T15:02:22.844Z,46.10
2018-11-20T15:05:08.009Z,46.30
2018-11-20T15:08:04.949Z,46.30
2018-11-20T15:10:57.535Z,46.20
2018-11-20T15:13:50.198Z,46.20
2018-11-20T15:16:43.278Z,46.20
2018-11-20T15:19:42.028Z,46.30
2018-11-20T15:22:28.716Z,46.20
2018-11-20T15:25:21.978Z,46.30
2018-11-20T15:27:57.949Z,46.20
2018-11-20T15:30:38.789Z,46.20
2018-11-20T15:33:14.850Z,46.20
2018-11-20T15:36:01.608Z,46.20
2018-11-20T15:38:46.740Z,46.20
2018-11-20T15:41:36.469Z,46.30
2018-11-20T15:44:18.019Z,46.30
2018-11-20T15:47:03.572Z,46.30
2018-11-20T15:49:53.103Z,46.20
2018-11-20T15:52:35.145Z,46.30
2018-11-20T15:55:40.214Z,46.30
2018-11-20T15:58:33.181Z,46.20
2018-11-20T16:01:23.388Z,46.20
2018-11-20T16:04:08.246Z,46.30
2018-11-20T16:07:01.686Z,46.30
2018-11-20T16:09:44.463Z,46.50
2018-11-20T16:12:29.935Z,46.50
2018-11-20T16:15:16.664Z,47.00
2018-11-20T16:18:13.221Z,47.00
2018-11-20T16:20:59.882Z,47.10
2018-11-20T16:23:49.175Z,46.90
2018-11-20T16:26:35.217Z,47.00
2018-11-20T16:29:14.543Z,47.10
2018-11-20T16:32:09.938Z,47.20
2018-11-20T16:34:55.488Z,47.40
2018-11-20T16:37:51.656Z,47.00
2018-11-20T16:40:36.963Z,47.00
2018-11-20T16:43:36.442Z,46.90
2018-11-20T16:46:26.097Z,46.80
2018-11-20T16:49:06.389Z,47.20
2018-11-20T16:51:56.211Z,47.00
2018-11-20T16:54:31.610Z,47.10
2018-11-20T16:57:24.049Z,47.00
2018-11-20T17:00:09.609Z,47.20
2018-11-20T17:03:10.472Z,47.30
2018-11-20T17:06:03.207Z,47.40
2018-11-20T17:08:49.428Z,47.60
2018-11-20T17:11:45.259Z,47.60
2018-11-20T17:14:23.140Z,47.60
2018-11-20T17:17:07.917Z,47.30
2018-11-20T17:19:54.626Z,47.20
2018-11-20T17:22:34.669Z,47.10
2018-11-20T17:25:21.364Z,47.10
2018-11-20T17:28:13.847Z,47.00
2018-11-20T17:31:03.611Z,47.00
2018-11-20T17:33:52.924Z,47.10
2018-11-20T17:36:39.057Z,47.30
2018-11-20T17:39:26.303Z,47.20
2018-11-20T17:42:11.460Z,47.30
2018-11-20T17:45:10.599Z,47.40
2018-11-20T17:47:50.918Z,47.90
2018-11-20T17:50:36.769Z,48.10
2018-11-20T17:53:22.639Z,48.00
2018-11-20T17:56:09.433Z,48.40
2018-11-20T17:58:55.715Z,47.90
2018-11-20T18:01:41.273Z,47.70
2018-11-20T18:04:26.591Z,47.70
2018-11-20T18:07:15.987Z,47.70
2018-11-20T18:10:08.293Z,47.60
2018-11-20T18:12:53.542Z,47.60
2018-11-20T18:15:42.997Z,47.60
2018-11-20T18:18:39.318Z,47.60
2018-11-20T18:21:20.133Z,47.50
2018-11-20T18:23:58.778Z,47.50
2018-11-20T18:26:44.220Z,47.50
2018-11-20T18:29:29.865Z,47.90
2018-11-20T18:32:12.874Z,48.10
2018-11-20T18:34:54.956Z,47.90
2018-11-20T18:37:50.908Z,47.60
2018-11-20T18:40:36.969Z,47.40
2018-11-20T18:43:19.365Z,47.40
2018-11-20T18:46:04.675Z,47.20
2018-11-20T18:48:49.906Z,47.40
2018-11-20T18:51:35.721Z,47.70
2018-11-20T18:54:37.578Z,47.90
2018-11-20T18:57:33.722Z,47.70
2018-11-20T19:00:38.671Z,47.50
2018-11-20T19:03:25.606Z,47.70
2018-11-20T19:06:12.006Z,48.30
2018-11-20T19:08:57.452Z,48.00
2018-11-20T19:11:47.093Z,48.40
2018-11-20T19:14:37.060Z,48.30
2018-11-20T19:17:25.360Z,48.10
2018-11-20T19:20:14.728Z,48.60
2018-11-20T19:22:53.925Z,48.00
2018-11-20T19:25:49.610Z,47.90
2018-11-20T19:28:35.376Z,47.90
2018-11-20T19:31:26.221Z,47.90
2018-11-20T19:34:09.940Z,47.80
2018-11-20T19:37:03.195Z,47.80
2018-11-20T19:39:56.812Z,47.90
2018-11-20T19:42:42.341Z,47.90
2018-11-20T19:45:43.946Z,47.80
2018-11-20T19:48:36.261Z,47.90
2018-11-20T19:51:23.168Z,48.30
2018-11-20T19:54:08.633Z,48.50
2018-11-20T19:56:55.332Z,48.50
2018-11-20T19:59:42.042Z,48.50
2018-11-20T20:02:37.873Z,48.50
2018-11-20T20:05:33.435Z,48.60
2018-11-20T20:08:22.981Z,48.80
2018-11-20T20:11:12.665Z,48.80
2018-11-20T20:13:58.154Z,48.60
2018-11-20T20:16:50.884Z,48.60
2018-11-20T20:19:33.470Z,48.50
2018-11-20T20:22:16.279Z,48.70
2018-11-20T20:25:02.988Z,48.30
2018-11-20T20:27:48.638Z,48.20
2018-11-20T20:30:35.390Z,48.20
2018-11-20T20:33:21.032Z,48.20
2018-11-20T20:36:25.650Z,47.90
2018-11-20T20:39:18.203Z,48.00
2018-11-20T20:42:03.705Z,48.40
2018-11-20T20:44:40.730Z,48.40
2018-11-20T20:47:26.050Z,48.30
2018-11-20T20:50:21.902Z,48.20
2018-11-20T20:53:07.527Z,48.30
2018-11-20T20:55:56.790Z,48.10
2018-11-20T20:58:42.372Z,48.00
2018-11-20T21:01:31.125Z,47.80
2018-11-20T21:04:21.066Z,47.60
2018-11-20T21:07:05.048Z,47.50
2018-11-20T21:10:00.574Z,48.10
2018-11-20T21:13:06.022Z,47.30
2018-11-20T21:16:03.390Z,47.40
2018-11-20T21:18:53.030Z,47.40
2018-11-20T21:21:54.333Z,47.50
2018-11-20T21:24:43.816Z,47.80
2018-11-20T21:27:21.563Z,47.70
2018-11-20T21:30:06.866Z,47.50
2018-11-20T21:32:52.282Z,47.40
2018-11-20T21:35:46.825Z,47.40
2018-11-20T21:38:27.014Z,47.50
2018-11-20T21:41:12.200Z,47.20
2018-11-20T21:44:07.952Z,47.20
2018-11-20T21:46:53.166Z,47.20
2018-11-20T21:49:38.309Z,47.20
2018-11-20T21:52:19.288Z,47.10
2018-11-20T21:54:55.442Z,47.10
2018-11-20T21:57:40.821Z,47.10
2018-11-20T22:00:32.338Z,47.30
2018-11-20T22:03:17.550Z,47.40
2018-11-20T22:06:04.248Z,47.30
2018-11-20T22:08:56.767Z,47.30
2018-11-20T22:11:52.536Z,47.30
2018-11-20T22:14:37.760Z,47.10
2018-11-20T22:17:27.545Z,47.10
2018-11-20T22:20:29.521Z,47.00
2018-11-20T22:23:14.543Z,46.90
2018-11-20T22:25:57.766Z,46.90
2018-11-20T22:28:43.149Z,46.70
2018-11-20T22:31:29.861Z,46.70
2018-11-20T22:34:16.199Z,46.70
2018-11-20T22:37:01.652Z,47.00
2018-11-20T22:39:39.688Z,46.90
2018-11-20T22:42:35.008Z,47.00
2018-11-20T22:45:21.698Z,46.80
2018-11-20T22:48:06.855Z,46.80
2018-11-20T22:50:53.547Z,46.80
2018-11-20T22:53:43.175Z,47.00
2018-11-20T22:56:18.304Z,47.00
2018-11-20T22:59:03.666Z,47.10
2018-11-20T23:01:59.389Z,47.10
2018-11-20T23:04:53.409Z,47.10
2018-11-20T23:07:38.144Z,47.10
2018-11-20T23:10:05.567Z,47.10
2018-11-20T23:12:32.999Z,47.10
2018-11-20T23:15:00.427Z,47.00
2018-11-20T23:17:28.076Z,46.80
2018-11-20T23:19:55.529Z,46.70
2018-11-20T23:22:22.948Z,46.60
2018-11-20T23:24:50.362Z,46.70
2018-11-20T23:27:17.794Z,46.90
2018-11-20T23:29:45.206Z,46.80
2018-11-20T23:32:12.636Z,46.70
2018-11-20T23:34:40.060Z,47.30
2018-11-20T23:37:07.509Z,46.60
2018-11-20T23:39:34.931Z,46.70
2018-11-20T23:42:02.373Z,46.50
2018-11-20T23:44:29.841Z,46.60
2018-11-20T23:46:57.234Z,46.20
2018-11-20T23:49:24.732Z,46.20
2018-11-20T23:51:52.159Z,46.30
2018-11-20T23:54:19.586Z,46.20
2018-11-20T23:56:47.010Z,46.30
2018-11-20T23:59:14.429Z,46.20
